Flight Track Log - Related Links

Times and Time Zones

All times are in EDT time to prevent confusion due to time zone crossing. See the PDT4373 flight status page for this flight to view local times or setup timezone preferences in your user account.


Time Position Orientation Groundspeed Altitude Reporting Facility
EDT Latitude Longitude Course Direction KTS MPH feet Rate Location/Type
Mon 09:55:58 AM 39.8833 -75.2000 311° West 113 130 700  Level Philadelphia TRACON
Mon 09:56:52 AM 39.9167 -75.1833 21° North 136 157 2,000 1,316 Climbing Philadelphia TRACON
Mon 09:57:52 AM 39.9333 -75.1500 57° Northeast 145 167 3,200 1,200 Climbing Philadelphia TRACON
Mon 09:58:00 AM 40.0608 -75.2985 303° West  Level Estimated
Mon 09:58:52 AM 39.9833 -75.1833 333° Northwest 165 190 4,400  Level Philadelphia TRACON
Mon 09:59:00 AM 40.1236 -75.3178 North  Level Estimated
Mon 09:59:52 AM 40.0000 -75.2167 303° West 164 189 5,700  Level Philadelphia TRACON
Mon 10:00:00 AM 40.1865 -75.3372 North  Level Estimated
Mon 10:00:52 AM 40.0333 -75.2833 303° West 166 191 7,100  Level Philadelphia TRACON
Mon 10:01:00 AM 40.2493 -75.3565 311° West  Level Estimated
Mon 10:01:52 AM 40.0667 -75.3167 323° Northwest 169 194 8,100  Level Philadelphia TRACON
Mon 10:02:52 AM 40.0833 -75.3667 294° West 172 198 9,100 1,017 Climbing Philadelphia TRACON
Mon 10:03:50 AM 40.1136 -75.4175 308° West 172 198 10,100 915 Climbing New York Center
Mon 10:04:50 AM 40.1472 -75.4633 314° West 183 211 10,900 850 Climbing New York Center
Mon 10:05:50 AM 40.1786 -75.5117 310° West 183 211 11,800 850 Climbing New York Center
Mon 10:06:50 AM 40.2236 -75.5364 337° Northwest 183 211 12,600 800 Climbing New York Center
Mon 10:07:50 AM 40.2706 -75.5614 338° Northwest 183 211 13,400 700 Climbing New York Center
Mon 10:08:50 AM 40.3208 -75.6031 328° Northwest 189 217 14,000 300 Climbing New York Center
Mon 10:09:50 AM 40.3736 -75.6422 331° Northwest 205 236 14,000  Level New York Center
Mon 10:10:50 AM 40.4325 -75.6789 335° Northwest 221 254 14,000  Level New York Center
Mon 10:11:50 AM 40.4956 -75.7136 337° Northwest 242 278 14,000  Level New York Center
Mon 10:12:50 AM 40.5564 -75.7533 334° Northwest 242 278 14,000  Level New York Center
Mon 10:13:50 AM 40.6131 -75.7958 330° Northwest 242 278 14,000  Level New York Center
Mon 10:14:50 AM 40.6681 -75.8272 337° Northwest 237 273 14,000  Level New York Center
Mon 10:15:50 AM 40.7350 -75.8650 337° Northwest 237 273 14,000  Level New York Center
Mon 10:16:50 AM 40.7936 -75.9078 331° Northwest 232 267 14,000  Level New York Center
Mon 10:17:50 AM 40.8503 -75.9450 334° Northwest 237 273 14,000  Level New York Center
Mon 10:18:50 AM 40.9067 -75.9906 329° Northwest 237 273 14,000  Level New York Center
Mon 10:19:50 AM 40.9653 -76.0306 333° Northwest 237 273 14,000  Level New York Center
Mon 10:20:50 AM 41.0264 -76.0628 338° Northwest 237 273 14,000  Level New York Center
Mon 10:21:50 AM 41.0828 -76.1058 330° Northwest 232 267 14,000  Level New York Center
Mon 10:22:50 AM 41.1375 -76.1431 333° Northwest 237 273 14,000  Level New York Center
Mon 10:23:50 AM 41.1961 -76.1808 334° Northwest 237 273 14,000  Level New York Center
Mon 10:24:50 AM 41.2633 -76.2111 341° North 237 273 14,000  Level New York Center
Mon 10:25:50 AM 41.3308 -76.1972 North 229 264 14,000  Level New York Center
Mon 10:26:50 AM 41.3997 -76.1917 North 240 276 14,000  Level New York Center
Mon 10:27:50 AM 41.4581 -76.1908 North 240 276 14,000 -150 Level New York Center
Mon 10:28:50 AM 41.5272 -76.1853 North 240 276 13,700 -750 Descending New York Center
Mon 10:29:50 AM 41.6086 -76.1781 North 254 292 12,500 -1,000 Descending New York Center
Mon 10:30:50 AM 41.6669 -76.1772 North 254 292 11,700 -1,200 Descending New York Center
Mon 10:31:50 AM 41.7528 -76.1703 North 254 292 10,100 -1,550 Descending New York Center
Mon 10:32:50 AM 41.8031 -76.1189 37° Northeast 249 287 8,600 -1,500 Descending New York Center
Mon 10:33:50 AM 41.8594 -76.0678 34° Northeast 249 287 7,100 -1,650 Descending New York Center
Mon 10:34:50 AM 41.9203 -76.0111 35° Northeast 244 281 5,300 -1,450 Descending New York Center
Mon 10:35:50 AM 41.9606 -75.9475 50° Northeast 230 265 4,200 -650 Descending New York Center
Mon 10:36:50 AM 41.9922 -75.8858 55° Northeast 210 242 4,000 -100 Descending New York Center
Mon 10:37:50 AM 42.0194 -75.8319 56° Northeast 195 224 4,000  Level New York Center
Mon 10:38:50 AM 42.0681 -75.8636 334° Northwest 160 184 4,000 -100 Level New York Center
Mon 10:39:50 AM 42.1064 -75.8972 327° Northwest 165 190 3,800 -450 Descending New York Center
Mon 10:40:50 AM 42.1386 -75.9222 330° Northwest 147 169 3,100 -700 Descending New York Center
Mon 10:41:50 AM 42.1667 -75.9467 327° Northwest 130 150 2,400 -450 Descending New York Center
Mon 10:42:50 AM 42.1989 -75.9717 330° Northwest 124 143 2,200 -200 Descending New York Center

Login

Don't have an account? Register now (free) for customized features, flight alerts, and more!